sensor_id;sensor_type;location;lat;lon;timestamp;temperature;humidity
40368;DHT22;26075;43.320;21.920;2023-04-21T00:08:15;17.10;51.10
40368;DHT22;26075;43.320;21.920;2023-04-21T00:23:18;16.60;51.40
40368;DHT22;26075;43.320;21.920;2023-04-21T00:38:29;16.80;51.70
40368;DHT22;26075;43.320;21.920;2023-04-21T00:44:01;16.70;51.70
40368;DHT22;26075;43.320;21.920;2023-04-21T00:49:06;16.80;52.00
40368;DHT22;26075;43.320;21.920;2023-04-21T00:59:11;16.20;51.90
40368;DHT22;26075;43.320;21.920;2023-04-21T01:04:13;16.10;52.00
40368;DHT22;26075;43.320;21.920;2023-04-21T01:09:35;16.50;52.20
40368;DHT22;26075;43.320;21.920;2023-04-21T01:14:38;16.30;52.10
40368;DHT22;26075;43.320;21.920;2023-04-21T01:25:07;15.90;52.30
40368;DHT22;26075;43.320;21.920;2023-04-21T01:40:11;16.40;52.70
40368;DHT22;26075;43.320;21.920;2023-04-21T02:00:15;15.70;52.60
40368;DHT22;26075;43.320;21.920;2023-04-21T02:05:19;16.00;53.10
40368;DHT22;26075;43.320;21.920;2023-04-21T02:10:23;15.80;52.60
40368;DHT22;26075;43.320;21.920;2023-04-21T02:40:39;16.00;52.90
40368;DHT22;26075;43.320;21.920;2023-04-21T03:05:46;15.40;53.20
40368;DHT22;26075;43.320;21.920;2023-04-21T03:20:59;15.20;53.50
40368;DHT22;26075;43.320;21.920;2023-04-21T03:31:04;15.00;53.30
40368;DHT22;26075;43.320;21.920;2023-04-21T03:51:10;15.50;53.30
40368;DHT22;26075;43.320;21.920;2023-04-21T04:11:19;15.40;53.30
40368;DHT22;26075;43.320;21.920;2023-04-21T04:16:20;15.10;53.30
40368;DHT22;26075;43.320;21.920;2023-04-21T04:21:27;15.10;53.40
40368;DHT22;26075;43.320;21.920;2023-04-21T04:31:33;15.30;53.40
40368;DHT22;26075;43.320;21.920;2023-04-21T04:47:00;14.90;53.10
40368;DHT22;26075;43.320;21.920;2023-04-21T05:02:06;15.20;53.50
40368;DHT22;26075;43.320;21.920;2023-04-21T05:07:07;15.10;53.40
40368;DHT22;26075;43.320;21.920;2023-04-21T05:12:08;15.00;53.40
40368;DHT22;26075;43.320;21.920;2023-04-21T05:22:11;15.10;53.80
40368;DHT22;26075;43.320;21.920;2023-04-21T05:37:17;15.20;53.90
40368;DHT22;26075;43.320;21.920;2023-04-21T06:02:22;19.10;52.50
40368;DHT22;26075;43.320;21.920;2023-04-21T06:32:36;19.90;51.80
40368;DHT22;26075;43.320;21.920;2023-04-21T06:47:41;18.30;52.50
40368;DHT22;26075;43.320;21.920;2023-04-21T08:04:48;20.00;51.40
40368;DHT22;26075;43.320;21.920;2023-04-21T08:29:53;19.50;51.30
40368;DHT22;26075;43.320;21.920;2023-04-21T08:34:55;18.80;51.90
40368;DHT22;26075;43.320;21.920;2023-04-21T08:45:02;18.30;52.10
40368;DHT22;26075;43.320;21.920;2023-04-21T08:55:31;18.60;52.60
40368;DHT22;26075;43.320;21.920;2023-04-21T09:05:34;19.50;51.50
40368;DHT22;26075;43.320;21.920;2023-04-21T09:10:50;20.00;51.10
40368;DHT22;26075;43.320;21.920;2023-04-21T09:15:54;20.40;50.40
40368;DHT22;26075;43.320;21.920;2023-04-21T09:26:06;20.60;50.00
40368;DHT22;26075;43.320;21.920;2023-04-21T09:31:22;20.80;50.00
40368;DHT22;26075;43.320;21.920;2023-04-21T09:36:29;21.00;49.60
40368;DHT22;26075;43.320;21.920;2023-04-21T09:46:34;20.90;48.90
40368;DHT22;26075;43.320;21.920;2023-04-21T09:51:35;20.70;48.50
40368;DHT22;26075;43.320;21.920;2023-04-21T09:56:39;20.10;48.80
40368;DHT22;26075;43.320;21.920;2023-04-21T10:06:47;19.90;48.50
40368;DHT22;26075;43.320;21.920;2023-04-21T10:11:51;19.70;48.30
40368;DHT22;26075;43.320;21.920;2023-04-21T10:17:02;19.60;48.00
40368;DHT22;26075;43.320;21.920;2023-04-21T10:28:05;19.90;47.90
40368;DHT22;26075;43.320;21.920;2023-04-21T10:38:54;20.20;46.90
40368;DHT22;26075;43.320;21.920;2023-04-21T10:49:55;20.30;47.00
40368;DHT22;26075;43.320;21.920;2023-04-21T10:55:07;20.20;46.40
40368;DHT22;26075;43.320;21.920;2023-04-21T11:00:13;20.10;46.20
40368;DHT22;26075;43.320;21.920;2023-04-21T11:50:30;20.30;44.50
40368;DHT22;26075;43.320;21.920;2023-04-21T11:55:44;20.40;44.90
40368;DHT22;26075;43.320;21.920;2023-04-21T12:06:01;20.10;44.40
40368;DHT22;26075;43.320;21.920;2023-04-21T12:11:03;20.00;44.20
40368;DHT22;26075;43.320;21.920;2023-04-21T12:21:08;20.30;43.70
40368;DHT22;26075;43.320;21.920;2023-04-21T12:26:09;20.30;43.60
40368;DHT22;26075;43.320;21.920;2023-04-21T12:36:11;20.50;43.30
40368;DHT22;26075;43.320;21.920;2023-04-21T12:51:28;20.70;42.30
40368;DHT22;26075;43.320;21.920;2023-04-21T13:06:33;21.40;43.20
40368;DHT22;26075;43.320;21.920;2023-04-21T13:11:38;21.70;41.90
40368;DHT22;26075;43.320;21.920;2023-04-21T13:21:44;21.90;41.90
40368;DHT22;26075;43.320;21.920;2023-04-21T13:31:55;22.00;41.20
40368;DHT22;26075;43.320;21.920;2023-04-21T13:37:03;22.10;41.00
40368;DHT22;26075;43.320;21.920;2023-04-21T13:42:03;22.20;41.00
40368;DHT22;26075;43.320;21.920;2023-04-21T14:07:09;21.10;40.90
40368;DHT22;26075;43.320;21.920;2023-04-21T14:27:14;20.90;40.70
40368;DHT22;26075;43.320;21.920;2023-04-21T14:32:16;20.40;40.30
40368;DHT22;26075;43.320;21.920;2023-04-21T14:37:20;20.70;40.50
40368;DHT22;26075;43.320;21.920;2023-04-21T14:42:30;20.60;40.50
40368;DHT22;26075;43.320;21.920;2023-04-21T15:02:37;20.60;40.20
40368;DHT22;26075;43.320;21.920;2023-04-21T15:12:42;20.60;40.10
40368;DHT22;26075;43.320;21.920;2023-04-21T15:17:43;20.60;40.10
40368;DHT22;26075;43.320;21.920;2023-04-21T15:32:52;20.40;40.00
40368;DHT22;26075;43.320;21.920;2023-04-21T15:52:56;20.10;39.60
40368;DHT22;26075;43.320;21.920;2023-04-21T16:13:03;20.60;40.10
40368;DHT22;26075;43.320;21.920;2023-04-21T16:18:04;20.40;40.00
40368;DHT22;26075;43.320;21.920;2023-04-21T16:33:09;20.40;40.10
40368;DHT22;26075;43.320;21.920;2023-04-21T16:38:15;20.50;40.00
40368;DHT22;26075;43.320;21.920;2023-04-21T16:43:21;20.80;40.20
40368;DHT22;26075;43.320;21.920;2023-04-21T16:48:26;20.60;40.00
40368;DHT22;26075;43.320;21.920;2023-04-21T16:53:43;20.90;40.10
40368;DHT22;26075;43.320;21.920;2023-04-21T17:03:50;20.90;40.00
40368;DHT22;26075;43.320;21.920;2023-04-21T17:08:57;21.10;40.10
40368;DHT22;26075;43.320;21.920;2023-04-21T17:14:01;21.00;40.20
40368;DHT22;26075;43.320;21.920;2023-04-21T17:24:04;20.80;40.40
40368;DHT22;26075;43.320;21.920;2023-04-21T17:29:05;20.70;40.70
40368;DHT22;26075;43.320;21.920;2023-04-21T17:39:09;21.20;41.00
40368;DHT22;26075;43.320;21.920;2023-04-21T17:49:11;21.10;41.20
40368;DHT22;26075;43.320;21.920;2023-04-21T18:09:20;21.30;41.40
40368;DHT22;26075;43.320;21.920;2023-04-21T18:14:21;21.30;42.00
40368;DHT22;26075;43.320;21.920;2023-04-21T18:19:38;21.30;41.70
40368;DHT22;26075;43.320;21.920;2023-04-21T18:24:38;21.60;42.20
40368;DHT22;26075;43.320;21.920;2023-04-21T18:29:43;21.40;42.10
40368;DHT22;26075;43.320;21.920;2023-04-21T18:40:00;21.50;42.40
40368;DHT22;26075;43.320;21.920;2023-04-21T18:45:01;22.00;42.60
40368;DHT22;26075;43.320;21.920;2023-04-21T18:50:02;21.60;42.60
40368;DHT22;26075;43.320;21.920;2023-04-21T19:00:06;21.30;42.70
40368;DHT22;26075;43.320;21.920;2023-04-21T19:10:11;21.00;42.70
40368;DHT22;26075;43.320;21.920;2023-04-21T19:15:12;20.90;42.40
40368;DHT22;26075;43.320;21.920;2023-04-21T19:35:28;19.60;43.50
40368;DHT22;26075;43.320;21.920;2023-04-21T20:00:35;18.70;43.90
40368;DHT22;26075;43.320;21.920;2023-04-21T20:05:39;18.80;44.10
40368;DHT22;26075;43.320;21.920;2023-04-21T20:15:48;18.80;44.20
40368;DHT22;26075;43.320;21.920;2023-04-21T20:30:59;18.30;44.40
40368;DHT22;26075;43.320;21.920;2023-04-21T20:36:05;18.70;45.70
40368;DHT22;26075;43.320;21.920;2023-04-21T21:01:57;20.70;44.90
40368;DHT22;26075;43.320;21.920;2023-04-21T21:06:58;26.40;47.80
40368;DHT22;26075;43.320;21.920;2023-04-21T21:12:00;21.10;44.90
40368;DHT22;26075;43.320;21.920;2023-04-21T21:22:02;20.90;44.60
40368;DHT22;26075;43.320;21.920;2023-04-21T21:27:03;21.00;44.50
40368;DHT22;26075;43.320;21.920;2023-04-21T21:32:04;20.70;44.40
40368;DHT22;26075;43.320;21.920;2023-04-21T21:37:05;21.00;44.60
40368;DHT22;26075;43.320;21.920;2023-04-21T21:47:07;20.90;44.50
40368;DHT22;26075;43.320;21.920;2023-04-21T21:52:07;20.80;44.30
40368;DHT22;26075;43.320;21.920;2023-04-21T22:17:12;20.70;44.10
40368;DHT22;26075;43.320;21.920;2023-04-21T22:22:18;20.70;43.90
40368;DHT22;26075;43.320;21.920;2023-04-21T22:27:19;20.50;44.00
40368;DHT22;26075;43.320;21.920;2023-04-21T22:32:23;20.80;44.00
40368;DHT22;26075;43.320;21.920;2023-04-21T22:42:26;20.70;44.10
40368;DHT22;26075;43.320;21.920;2023-04-21T22:47:26;20.50;43.90
40368;DHT22;26075;43.320;21.920;2023-04-21T22:57:28;20.50;43.90
40368;DHT22;26075;43.320;21.920;2023-04-21T23:02:34;20.60;44.00
40368;DHT22;26075;43.320;21.920;2023-04-21T23:07:35;20.50;44.00
40368;DHT22;26075;43.320;21.920;2023-04-21T23:22:38;20.30;44.00
40368;DHT22;26075;43.320;21.920;2023-04-21T23:37:41;20.30;44.00
40368;DHT22;26075;43.320;21.920;2023-04-21T23:42:43;20.10;43.90
40368;DHT22;26075;43.320;21.920;2023-04-21T23:52:45;20.00;43.80
